Time;durP1;ratioP1;P1;durP2;ratioP2;P2;SDS_P1;SDS_P2;PMS_P1;PMS_P2;Temp;Humidity;BMP_temperature;BMP_pressure;BME280_temperature;BME280_humidity;BME280_pressure;Samples;Min_cycle;Max_cycle;Signal;HPM_P1;HPM_P2
2023/07/27 00:00:07;;;;;;;6.53;3.40;;;18.70;65.10;;;;;;5049198;28;20029;-65
2023/07/27 00:02:33;;;;;;;6.53;3.40;;;18.70;65.00;;;;;;5045147;28;20037;-65
2023/07/27 00:04:59;;;;;;;7.07;3.65;;;18.70;65.00;;;;;;5043646;28;20044;-66
2023/07/27 00:07:24;;;;;;;7.32;3.45;;;18.70;65.10;;;;;;5046713;28;20028;-65
2023/07/27 00:09:50;;;;;;;6.80;3.47;;;18.70;65.20;;;;;;5047812;28;20407;-65
2023/07/27 00:12:16;;;;;;;8.40;3.90;;;18.70;65.20;;;;;;5048632;28;21848;-65
2023/07/27 00:14:42;;;;;;;7.40;3.70;;;18.70;65.20;;;;;;5044435;28;20044;-65
2023/07/27 00:17:08;;;;;;;6.53;3.25;;;18.70;65.20;;;;;;5047149;28;20025;-65
2023/07/27 00:19:34;;;;;;;7.35;3.42;;;18.70;65.30;;;;;;5047026;28;20319;-65
2023/07/27 00:22:00;;;;;;;7.65;3.55;;;18.70;65.40;;;;;;5027289;28;20024;-65
2023/07/27 00:24:25;;;;;;;7.70;3.33;;;18.70;65.30;;;;;;5037453;28;20033;-65
2023/07/27 00:26:51;;;;;;;7.85;3.13;;;18.70;65.20;;;;;;5042045;28;20031;-65
2023/07/27 00:29:17;;;;;;;6.90;2.92;;;18.70;65.10;;;;;;5048722;28;20048;-65
2023/07/27 00:31:43;;;;;;;7.38;3.17;;;18.70;65.00;;;;;;5045742;28;20064;-65
2023/07/27 00:34:08;;;;;;;7.20;3.30;;;18.70;64.70;;;;;;5042715;28;20032;-65
2023/07/27 00:36:34;;;;;;;7.72;2.88;;;18.70;64.50;;;;;;5036083;28;20017;-65
2023/07/27 00:39:00;;;;;;;8.07;3.85;;;18.70;64.30;;;;;;5045677;28;20028;-65
2023/07/27 00:41:26;;;;;;;7.88;3.10;;;18.70;64.10;;;;;;5047372;28;20017;-65
2023/07/27 00:43:51;;;;;;;7.03;3.08;;;18.80;64.10;;;;;;5048215;28;20366;-65
2023/07/27 00:46:17;;;;;;;7.40;3.30;;;18.80;64.10;;;;;;5041634;28;20071;-65
2023/07/27 00:48:43;;;;;;;7.00;3.40;;;18.80;64.00;;;;;;5044902;28;20063;-65
2023/07/27 00:51:10;;;;;;;7.28;3.28;;;18.80;64.00;;;;;;5063248;28;20025;-65
2023/07/27 00:53:36;;;;;;;6.93;3.38;;;18.80;63.90;;;;;;5050644;28;20064;-65
2023/07/27 00:56:03;;;;;;;7.40;3.42;;;18.80;63.60;;;;;;5044867;28;20461;-65
2023/07/27 00:58:28;;;;;;;7.40;3.25;;;18.80;63.50;;;;;;5040843;28;20075;-65
2023/07/27 01:00:55;;;;;;;8.25;3.90;;;18.80;63.80;;;;;;5041534;28;20025;-65
2023/07/27 01:03:20;;;;;;;7.60;3.67;;;18.80;64.20;;;;;;5059060;28;20032;-65
2023/07/27 01:05:47;;;;;;;9.68;4.20;;;18.80;65.20;;;;;;5040831;28;20339;-66
2023/07/27 01:08:13;;;;;;;9.02;4.80;;;18.80;65.00;;;;;;5044998;28;20083;-65
2023/07/27 01:10:49;;;;;;;8.13;4.43;;;18.70;65.40;;;;;;5040173;28;20099;-65
2023/07/27 01:13:48;;;;;;;7.97;4.38;;;18.70;66.00;;;;;;5047894;28;20029;-65
2023/07/27 01:16:21;;;;;;;7.97;4.00;;;18.70;66.50;;;;;;5042923;28;20123;-65
2023/07/27 01:19:09;;;;;;;8.70;4.32;;;18.70;67.00;;;;;;5041062;28;20033;-65
2023/07/27 01:21:39;;;;;;;8.52;4.30;;;18.70;67.60;;;;;;5044433;28;20028;-65
2023/07/27 01:24:37;;;;;;;8.05;4.13;;;18.60;67.90;;;;;;5048322;28;20106;-65
2023/07/27 01:27:18;;;;;;;8.88;4.22;;;18.50;68.30;;;;;;4987894;28;20033;-65
2023/07/27 01:30:12;;;;;;;7.22;3.80;;;18.50;68.70;;;;;;5050998;28;20519;-65
2023/07/27 01:32:40;;;;;;;8.13;4.38;;;18.50;69.00;;;;;;5050573;28;20085;-65
2023/07/27 01:35:12;;;;;;;8.48;4.47;;;18.40;69.30;;;;;;5050632;28;20068;-65
2023/07/27 01:37:41;;;;;;;10.68;5.05;;;18.40;69.80;;;;;;5040129;28;20028;-65
2023/07/27 01:40:09;;;;;;;8.38;4.65;;;18.40;70.00;;;;;;5047458;28;20344;-65
2023/07/27 01:42:37;;;;;;;8.63;4.72;;;18.40;70.30;;;;;;5048394;28;20028;-65
2023/07/27 01:45:04;;;;;;;8.85;5.22;;;18.30;70.70;;;;;;5045878;28;20469;-65
2023/07/27 01:47:30;;;;;;;8.50;4.70;;;18.30;70.80;;;;;;5053542;28;20566;-65
2023/07/27 01:49:57;;;;;;;8.38;4.72;;;18.30;71.10;;;;;;5048930;28;20033;-65
2023/07/27 01:52:25;;;;;;;9.40;4.95;;;18.30;71.40;;;;;;5053440;28;20036;-65
2023/07/27 01:54:51;;;;;;;9.07;5.25;;;18.20;71.50;;;;;;5042076;28;20458;-65
2023/07/27 01:57:18;;;;;;;9.00;4.88;;;18.20;71.70;;;;;;5051311;28;20037;-65
2023/07/27 01:59:45;;;;;;;8.65;4.63;;;18.20;72.00;;;;;;5045645;28;20025;-66
2023/07/27 02:02:14;;;;;;;8.75;4.43;;;18.20;72.40;;;;;;5044466;28;20454;-65
2023/07/27 02:04:41;;;;;;;9.05;4.60;;;18.20;72.70;;;;;;5045199;28;20116;-65
2023/07/27 02:07:07;;;;;;;8.43;4.75;;;18.10;73.00;;;;;;5042957;28;20029;-65
2023/07/27 02:09:32;;;;;;;8.88;4.95;;;18.00;73.20;;;;;;5049670;28;20037;-65
2023/07/27 02:12:06;;;;;;;9.70;4.90;;;18.00;73.40;;;;;;5042128;28;20070;-65
2023/07/27 02:14:45;;;;;;;7.38;4.00;;;18.00;73.60;;;;;;5050685;28;20446;-65
2023/07/27 02:17:27;;;;;;;9.32;4.82;;;18.00;73.90;;;;;;5042147;28;20021;-65
2023/07/27 02:19:59;;;;;;;8.60;4.78;;;18.00;74.10;;;;;;5058973;28;20036;-65
2023/07/27 02:22:27;;;;;;;9.63;4.97;;;18.00;74.30;;;;;;5045952;28;20032;-65
2023/07/27 02:24:54;;;;;;;9.27;4.35;;;18.00;74.40;;;;;;5042667;28;20037;-66
2023/07/27 02:27:20;;;;;;;8.65;4.80;;;18.00;74.60;;;;;;5066483;28;20420;-65
2023/07/27 02:29:46;;;;;;;8.85;4.75;;;18.00;74.60;;;;;;5044794;28;20549;-65
2023/07/27 02:32:12;;;;;;;9.68;5.00;;;18.00;74.80;;;;;;5040260;28;20120;-65
2023/07/27 02:34:37;;;;;;;8.20;4.68;;;18.00;74.90;;;;;;5050112;28;20145;-65
2023/07/27 02:37:04;;;;;;;8.35;4.93;;;18.00;75.00;;;;;;5043688;28;20259;-66
2023/07/27 02:39:30;;;;;;;7.88;4.82;;;18.00;75.20;;;;;;5050771;28;20441;-65
2023/07/27 02:41:56;;;;;;;10.25;5.38;;;18.00;75.30;;;;;;5047794;28;20025;-65
2023/07/27 02:44:22;;;;;;;9.63;5.03;;;18.00;75.30;;;;;;5027360;28;20039;-65
2023/07/27 02:46:47;;;;;;;9.18;5.10;;;18.00;75.30;;;;;;5042638;28;20037;-65
2023/07/27 02:49:13;;;;;;;9.63;5.57;;;17.90;75.20;;;;;;5052614;28;20035;-65
2023/07/27 02:51:41;;;;;;;10.00;6.40;;;18.00;75.20;;;;;;5043796;28;20038;-65
2023/07/27 02:54:07;;;;;;;11.48;6.53;;;17.90;75.30;;;;;;5027893;28;20033;-65
2023/07/27 02:56:33;;;;;;;10.10;6.13;;;17.90;75.40;;;;;;5044502;28;20179;-65
2023/07/27 02:58:59;;;;;;;9.70;6.15;;;17.90;75.50;;;;;;5051255;28;20017;-65
2023/07/27 03:01:25;;;;;;;12.75;6.63;;;17.90;75.60;;;;;;5046058;28;20480;-65
2023/07/27 03:03:59;;;;;;;11.40;6.50;;;17.90;76.30;;;;;;5023482;28;20718;-65
2023/07/27 03:06:24;;;;;;;11.55;7.22;;;17.90;75.60;;;;;;5048973;28;20052;-65
2023/07/27 03:08:55;;;;;;;11.20;7.32;;;17.80;75.60;;;;;;5024462;28;20017;-65
2023/07/27 03:11:21;;;;;;;11.65;6.95;;;17.80;75.80;;;;;;5047574;28;20029;-66
2023/07/27 03:13:47;;;;;;;11.48;6.50;;;17.80;76.00;;;;;;5009165;28;20022;-66
2023/07/27 03:16:12;;;;;;;10.60;6.53;;;17.80;76.00;;;;;;5038735;28;20684;-65
2023/07/27 03:18:38;;;;;;;11.43;7.07;;;17.80;76.20;;;;;;5027756;28;20028;-66
2023/07/27 03:21:05;;;;;;;12.85;7.78;;;17.80;76.40;;;;;;5047538;28;20032;-65
2023/07/27 03:23:33;;;;;;;11.27;7.22;;;17.80;77.30;;;;;;5042902;28;20056;-65
2023/07/27 03:25:59;;;;;;;10.85;7.55;;;17.80;76.70;;;;;;5024886;28;20033;-66
2023/07/27 03:28:25;;;;;;;13.13;7.82;;;17.80;76.70;;;;;;5045630;28;20025;-65
2023/07/27 03:30:51;;;;;;;11.13;6.93;;;17.80;76.80;;;;;;5044312;28;20021;-66
2023/07/27 03:33:17;;;;;;;11.57;7.88;;;17.80;76.80;;;;;;5026528;28;21151;-65
2023/07/27 03:35:42;;;;;;;11.68;7.47;;;17.80;76.90;;;;;;5045219;28;20289;-65
2023/07/27 03:38:08;;;;;;;11.48;7.65;;;17.80;76.80;;;;;;5045299;28;20017;-65
2023/07/27 03:40:34;;;;;;;11.35;7.70;;;17.80;76.90;;;;;;5042338;28;20024;-65
2023/07/27 03:43:00;;;;;;;12.35;8.23;;;17.80;77.00;;;;;;5045166;28;20032;-65
2023/07/27 03:45:26;;;;;;;11.10;8.23;;;17.70;77.00;;;;;;5048785;28;20481;-65
2023/07/27 03:47:52;;;;;;;12.30;7.70;;;17.70;77.00;;;;;;5045869;28;20033;-65
2023/07/27 03:50:19;;;;;;;13.20;8.38;;;17.70;77.00;;;;;;5065977;28;20048;-65
2023/07/27 03:52:45;;;;;;;13.05;9.00;;;17.70;76.90;;;;;;5037217;28;20048;-65
2023/07/27 03:55:12;;;;;;;13.15;8.98;;;17.80;77.00;;;;;;5046364;28;20513;-65
2023/07/27 03:57:39;;;;;;;12.63;9.35;;;17.70;77.00;;;;;;5031887;28;20300;-65
2023/07/27 04:00:06;;;;;;;15.98;10.93;;;17.70;76.90;;;;;;5042675;28;20022;-65
2023/07/27 04:02:41;;;;;;;14.27;9.43;;;17.70;77.00;;;;;;5053610;28;20087;-66
2023/07/27 04:05:07;;;;;;;13.43;9.55;;;17.70;77.00;;;;;;5054623;28;20037;-65
2023/07/27 04:07:32;;;;;;;13.65;9.25;;;17.70;77.10;;;;;;5054660;28;20047;-65
2023/07/27 04:09:58;;;;;;;14.70;8.75;;;17.70;77.10;;;;;;5052967;28;20025;-65
2023/07/27 04:12:24;;;;;;;12.90;8.52;;;17.60;77.20;;;;;;5051291;28;20164;-65
2023/07/27 04:14:50;;;;;;;12.35;9.02;;;17.60;77.40;;;;;;5050037;28;20078;-65
2023/07/27 04:17:15;;;;;;;12.05;8.18;;;17.60;77.50;;;;;;5036911;28;20445;-65
2023/07/27 04:19:41;;;;;;;11.55;7.25;;;17.60;77.60;;;;;;5030802;28;20029;-65
2023/07/27 04:22:07;;;;;;;10.95;6.70;;;17.60;77.60;;;;;;5042815;28;20021;-66
2023/07/27 04:24:33;;;;;;;12.20;7.60;;;17.60;77.60;;;;;;5043773;28;20132;-65
2023/07/27 04:26:58;;;;;;;10.55;6.15;;;17.60;77.60;;;;;;5046748;28;20032;-65
2023/07/27 04:29:24;;;;;;;10.65;6.43;;;17.60;77.70;;;;;;5045100;28;20029;-65
2023/07/27 04:31:50;;;;;;;12.05;6.45;;;17.60;77.80;;;;;;5043628;28;20025;-65
2023/07/27 04:34:15;;;;;;;10.13;6.00;;;17.60;77.80;;;;;;5044681;28;20029;-65
2023/07/27 04:36:41;;;;;;;10.30;6.07;;;17.60;78.60;;;;;;5036316;28;20392;-65
2023/07/27 04:39:07;;;;;;;10.88;6.15;;;17.60;78.00;;;;;;5061526;28;20151;-65
2023/07/27 04:41:33;;;;;;;11.02;6.20;;;17.50;78.00;;;;;;5044211;28;20055;-65
2023/07/27 04:43:59;;;;;;;10.05;6.00;;;17.50;78.10;;;;;;5028884;28;20086;-65
2023/07/27 04:46:25;;;;;;;9.38;5.82;;;17.50;78.10;;;;;;5049451;28;20032;-65
2023/07/27 04:48:50;;;;;;;10.50;5.90;;;17.50;78.20;;;;;;5047356;28;20101;-65
2023/07/27 04:51:16;;;;;;;10.30;6.40;;;17.50;78.20;;;;;;5047310;28;20017;-65
2023/07/27 04:53:42;;;;;;;9.75;5.70;;;17.50;78.30;;;;;;5045351;28;20020;-65
2023/07/27 04:56:07;;;;;;;10.63;6.10;;;17.60;78.40;;;;;;5051618;28;20351;-64
2023/07/27 04:58:33;;;;;;;11.68;5.82;;;17.50;78.40;;;;;;5044245;28;20021;-63
2023/07/27 05:00:59;;;;;;;9.23;5.30;;;17.60;78.50;;;;;;5029226;28;20040;-63
2023/07/27 05:03:25;;;;;;;10.40;5.70;;;17.60;78.60;;;;;;5045095;28;20049;-63
2023/07/27 05:05:55;;;;;;;9.40;5.30;;;17.50;78.60;;;;;;5047688;28;20130;-63
2023/07/27 05:08:20;;;;;;;8.82;5.18;;;17.50;78.70;;;;;;5020244;28;20025;-63
2023/07/27 05:10:46;;;;;;;9.85;5.13;;;17.50;78.80;;;;;;5044076;28;20459;-65
2023/07/27 05:13:12;;;;;;;8.93;4.78;;;17.60;79.00;;;;;;5053590;28;20104;-64
2023/07/27 05:15:40;;;;;;;9.75;5.28;;;17.60;79.00;;;;;;5047401;28;20128;-64
2023/07/27 05:18:06;;;;;;;9.30;5.13;;;17.60;79.00;;;;;;5052633;28;20027;-64
2023/07/27 05:20:35;;;;;;;9.70;4.88;;;17.60;79.00;;;;;;5044835;28;20362;-64
2023/07/27 05:23:00;;;;;;;8.57;4.80;;;17.60;79.00;;;;;;5054189;28;20264;-64
2023/07/27 05:25:26;;;;;;;7.75;4.78;;;17.50;79.00;;;;;;5043946;28;20080;-64
2023/07/27 05:27:52;;;;;;;8.88;4.88;;;17.60;79.10;;;;;;5053547;28;20111;-64
2023/07/27 05:30:18;;;;;;;8.57;4.53;;;17.50;79.10;;;;;;5052696;28;20025;-65
2023/07/27 05:32:44;;;;;;;7.93;4.72;;;17.50;79.20;;;;;;5053601;28;20114;-64
2023/07/27 05:35:09;;;;;;;7.85;4.35;;;17.50;79.20;;;;;;5050758;28;20049;-64
2023/07/27 05:37:35;;;;;;;8.70;4.35;;;17.60;79.30;;;;;;5052159;28;20349;-64
2023/07/27 05:40:01;;;;;;;8.75;4.60;;;17.50;79.30;;;;;;5053987;28;20032;-64
2023/07/27 05:42:26;;;;;;;7.05;4.10;;;17.60;79.40;;;;;;5048784;28;20029;-64
2023/07/27 05:44:52;;;;;;;7.65;4.03;;;17.60;79.30;;;;;;5042296;28;20061;-64
2023/07/27 05:47:18;;;;;;;8.73;4.50;;;17.50;79.40;;;;;;5050970;28;20021;-64
2023/07/27 05:49:44;;;;;;;7.40;4.00;;;17.60;79.50;;;;;;5050479;28;20032;-64
2023/07/27 05:52:10;;;;;;;8.73;4.35;;;17.50;79.50;;;;;;5045299;28;20307;-64
2023/07/27 05:54:36;;;;;;;7.18;3.90;;;17.60;79.70;;;;;;5052077;28;20032;-63
2023/07/27 05:57:01;;;;;;;7.93;4.45;;;17.60;79.70;;;;;;5043397;28;20032;-63
2023/07/27 05:59:27;;;;;;;6.78;3.63;;;17.60;79.80;;;;;;5043629;28;20433;-63
2023/07/27 06:01:53;;;;;;;8.98;4.80;;;17.60;79.80;;;;;;5050622;28;20334;-63
2023/07/27 06:04:20;;;;;;;7.65;3.90;;;17.70;79.90;;;;;;5048324;28;20058;-63
2023/07/27 06:06:47;;;;;;;6.90;3.58;;;17.70;80.00;;;;;;5042222;28;20381;-63
2023/07/27 06:09:13;;;;;;;6.72;3.45;;;17.80;80.00;;;;;;5046343;28;20038;-64
2023/07/27 06:11:39;;;;;;;7.60;3.72;;;17.80;79.90;;;;;;5046860;28;20166;-63
2023/07/27 06:14:05;;;;;;;7.38;3.45;;;17.80;79.90;;;;;;5046879;28;20033;-63
2023/07/27 06:16:30;;;;;;;6.43;3.17;;;17.80;79.90;;;;;;5050191;28;20025;-63
2023/07/27 06:18:57;;;;;;;6.47;3.13;;;17.80;79.90;;;;;;5052851;28;20013;-63
2023/07/27 06:21:23;;;;;;;6.70;3.25;;;17.80;79.90;;;;;;5051039;28;20048;-64
2023/07/27 06:23:48;;;;;;;5.80;2.65;;;17.80;80.00;;;;;;5050775;28;20032;-64
2023/07/27 06:26:14;;;;;;;5.80;2.80;;;17.90;80.20;;;;;;5059055;28;20040;-64
2023/07/27 06:28:40;;;;;;;6.53;3.25;;;17.90;80.30;;;;;;5050940;28;20049;-64
2023/07/27 06:31:06;;;;;;;6.03;2.95;;;17.90;80.30;;;;;;5050773;28;20090;-64
2023/07/27 06:33:31;;;;;;;7.18;2.97;;;17.90;80.30;;;;;;5048292;28;20032;-64
2023/07/27 06:35:57;;;;;;;4.68;2.20;;;17.90;80.50;;;;;;5048351;28;20037;-64
2023/07/27 06:38:23;;;;;;;5.90;2.60;;;17.80;80.60;;;;;;5041036;28;20037;-64
2023/07/27 06:40:48;;;;;;;6.10;2.92;;;17.90;80.70;;;;;;5045140;28;20035;-63
2023/07/27 06:43:14;;;;;;;4.65;2.40;;;17.90;80.70;;;;;;5049581;28;20013;-63
2023/07/27 06:45:40;;;;;;;5.00;2.65;;;17.90;80.80;;;;;;5047981;28;20029;-63
2023/07/27 06:48:06;;;;;;;4.85;2.13;;;17.90;80.80;;;;;;5044593;28;20343;-64
2023/07/27 06:50:31;;;;;;;5.30;2.60;;;18.00;80.90;;;;;;5046893;28;20061;-64
2023/07/27 06:52:57;;;;;;;4.75;1.98;;;17.90;80.90;;;;;;5029357;28;20355;-63
2023/07/27 06:55:23;;;;;;;4.22;1.88;;;17.90;81.00;;;;;;5044071;28;20044;-63
2023/07/27 06:57:49;;;;;;;4.78;2.28;;;18.00;81.00;;;;;;5051018;28;20414;-63
2023/07/27 07:00:15;;;;;;;5.15;2.40;;;18.00;81.00;;;;;;5049745;28;20489;-63
2023/07/27 07:02:40;;;;;;;4.43;2.10;;;18.00;81.10;;;;;;5047758;28;20032;-64
2023/07/27 07:05:06;;;;;;;4.57;2.00;;;18.00;81.20;;;;;;5054044;28;20037;-62
2023/07/27 07:07:32;;;;;;;4.85;2.50;;;18.00;81.20;;;;;;5047528;28;20031;-62
2023/07/27 07:09:59;;;;;;;4.72;2.03;;;18.00;81.40;;;;;;5052954;28;20029;-62
2023/07/27 07:12:24;;;;;;;3.67;1.83;;;18.00;81.40;;;;;;5049124;28;20032;-62
2023/07/27 07:14:50;;;;;;;4.65;1.90;;;18.00;81.50;;;;;;5053333;28;20358;-63
2023/07/27 07:17:16;;;;;;;3.50;1.70;;;18.10;81.60;;;;;;5047600;28;20468;-63
2023/07/27 07:19:42;;;;;;;4.03;1.90;;;18.10;81.60;;;;;;5052520;28;20028;-63
2023/07/27 07:22:08;;;;;;;5.80;2.25;;;18.10;81.50;;;;;;5051335;28;20028;-63
2023/07/27 07:24:34;;;;;;;4.50;1.83;;;18.10;81.50;;;;;;5050753;28;20167;-63
2023/07/27 07:27:00;;;;;;;3.92;1.60;;;18.10;81.60;;;;;;5051298;28;20098;-63
2023/07/27 07:29:26;;;;;;;4.13;1.95;;;18.10;81.70;;;;;;5042465;28;20021;-63
2023/07/27 07:31:52;;;;;;;4.57;1.90;;;18.20;81.80;;;;;;5051289;28;20461;-63
2023/07/27 07:34:18;;;;;;;2.70;1.50;;;18.20;81.80;;;;;;5050496;28;20119;-63
2023/07/27 07:36:44;;;;;;;4.13;1.88;;;18.30;81.80;;;;;;5049079;28;20111;-63
2023/07/27 07:39:10;;;;;;;4.47;1.58;;;18.30;81.80;;;;;;5048719;28;20156;-63
2023/07/27 07:41:35;;;;;;;4.20;1.73;;;18.30;81.80;;;;;;5051823;28;20029;-64
2023/07/27 07:44:01;;;;;;;3.70;1.55;;;18.40;81.80;;;;;;5052316;28;20170;-66
2023/07/27 07:46:27;;;;;;;3.67;1.63;;;18.40;81.70;;;;;;5046503;28;20014;-63
2023/07/27 07:48:53;;;;;;;3.25;1.50;;;18.40;81.70;;;;;;5050008;28;20108;-63
2023/07/27 07:51:18;;;;;;;4.63;1.80;;;18.50;81.80;;;;;;5045802;28;20060;-63
2023/07/27 07:53:44;;;;;;;3.35;1.60;;;18.50;81.80;;;;;;5051576;28;20029;-62
2023/07/27 07:56:15;;;;;;;5.45;2.22;;;18.60;81.90;;;;;;5059502;28;20471;-62
2023/07/27 07:58:41;;;;;;;4.22;2.13;;;18.60;81.90;;;;;;5047549;28;20082;-64
2023/07/27 08:01:07;;;;;;;5.38;1.83;;;18.60;81.90;;;;;;5049360;28;20025;-65
2023/07/27 08:03:33;;;;;;;3.83;1.60;;;18.70;82.00;;;;;;5045229;28;20059;-63
2023/07/27 08:05:59;;;;;;;4.90;2.15;;;18.70;81.90;;;;;;5050717;28;20113;-64
2023/07/27 08:08:25;;;;;;;3.70;1.70;;;18.70;81.90;;;;;;5050353;28;20036;-67
2023/07/27 08:10:51;;;;;;;3.20;1.73;;;18.70;82.00;;;;;;5048693;28;20090;-65
2023/07/27 08:13:17;;;;;;;4.60;1.80;;;18.70;81.90;;;;;;5050854;28;20020;-64
2023/07/27 08:15:53;;;;;;;3.38;1.63;;;18.70;82.00;;;;;;5054679;28;20379;-63
2023/07/27 08:18:19;;;;;;;4.45;2.00;;;18.80;82.10;;;;;;5053548;28;20094;-65
2023/07/27 08:20:55;;;;;;;5.20;2.22;;;18.80;82.10;;;;;;5046104;28;20363;-63
2023/07/27 08:23:21;;;;;;;4.15;1.98;;;18.90;82.10;;;;;;5044424;28;20446;-64
2023/07/27 08:25:48;;;;;;;2.95;1.58;;;18.90;82.10;;;;;;5045078;28;20100;-64
2023/07/27 08:28:14;;;;;;;4.20;1.98;;;19.00;82.20;;;;;;5051380;28;20028;-64
2023/07/27 08:30:41;;;;;;;5.22;1.90;;;18.90;82.20;;;;;;5048757;28;20142;-64
2023/07/27 08:33:08;;;;;;;3.38;1.67;;;18.90;82.20;;;;;;5046822;28;20071;-64
2023/07/27 08:35:33;;;;;;;5.57;2.05;;;19.00;82.30;;;;;;5050380;28;20128;-65
2023/07/27 08:37:59;;;;;;;3.83;2.00;;;19.00;82.30;;;;;;5045284;28;20100;-66
2023/07/27 08:40:25;;;;;;;4.30;2.08;;;19.00;82.20;;;;;;5062294;28;20343;-66
2023/07/27 08:42:51;;;;;;;3.72;2.00;;;19.10;82.30;;;;;;5052548;28;20035;-67
2023/07/27 08:45:21;;;;;;;3.80;1.77;;;19.10;82.30;;;;;;5052928;28;20029;-66
2023/07/27 08:47:49;;;;;;;3.67;1.80;;;19.10;82.40;;;;;;5053859;28;20032;-66
2023/07/27 08:50:15;;;;;;;3.42;1.73;;;19.20;82.40;;;;;;5045107;28;20116;-67
2023/07/27 08:52:41;;;;;;;3.97;1.98;;;19.20;82.30;;;;;;5044451;28;20457;-67
2023/07/27 08:55:07;;;;;;;3.53;1.75;;;19.20;82.40;;;;;;5053734;28;20044;-66
2023/07/27 08:57:33;;;;;;;3.83;1.88;;;19.20;82.40;;;;;;5039688;28;20151;-66
2023/07/27 08:59:59;;;;;;;4.97;2.08;;;19.30;82.50;;;;;;5034911;28;20127;-67
2023/07/27 09:02:25;;;;;;;3.53;1.98;;;19.30;82.50;;;;;;5045246;28;20064;-65
2023/07/27 09:04:51;;;;;;;4.20;1.70;;;19.30;82.50;;;;;;5048253;28;20045;-64
2023/07/27 09:07:16;;;;;;;4.75;2.28;;;19.30;82.50;;;;;;5050372;28;20022;-65
2023/07/27 09:09:51;;;;;;;4.30;2.10;;;19.30;82.50;;;;;;5042201;28;20029;-66
2023/07/27 09:12:18;;;;;;;4.20;1.90;;;19.40;82.70;;;;;;5047400;28;20142;-66
2023/07/27 09:14:43;;;;;;;3.85;2.03;;;19.30;82.60;;;;;;5051661;28;20335;-65
2023/07/27 09:17:12;;;;;;;5.07;2.03;;;19.40;82.70;;;;;;5047187;28;20087;-64
2023/07/27 09:19:40;;;;;;;4.05;2.05;;;19.40;82.70;;;;;;5049283;28;20160;-65
2023/07/27 09:22:07;;;;;;;3.50;1.80;;;19.40;82.80;;;;;;5052310;28;20053;-65
2023/07/27 09:24:33;;;;;;;4.65;2.22;;;19.40;82.80;;;;;;5051526;28;20051;-65
2023/07/27 09:27:03;;;;;;;6.35;2.58;;;19.40;82.80;;;;;;5052647;28;20350;-66
2023/07/27 09:29:29;;;;;;;4.65;2.10;;;19.40;82.90;;;;;;5052553;28;20123;-65
2023/07/27 09:32:00;;;;;;;4.72;1.95;;;19.40;83.00;;;;;;5053394;28;20061;-65
2023/07/27 09:34:29;;;;;;;4.63;2.00;;;19.40;83.10;;;;;;5051119;28;20029;-64
2023/07/27 09:37:05;;;;;;;4.13;2.30;;;19.50;83.10;;;;;;5053943;28;20021;-65
2023/07/27 09:39:35;;;;;;;4.55;2.35;;;19.50;83.10;;;;;;5045065;28;20520;-65
2023/07/27 09:42:03;;;;;;;5.43;2.37;;;19.50;83.00;;;;;;5049359;28;20033;-65
2023/07/27 09:44:29;;;;;;;5.80;2.30;;;19.50;83.00;;;;;;5044128;28;20462;-65
2023/07/27 09:46:55;;;;;;;5.00;1.90;;;19.50;83.00;;;;;;5047324;28;20094;-65
2023/07/27 09:49:21;;;;;;;5.28;2.40;;;19.50;83.10;;;;;;5048039;28;20045;-66
2023/07/27 09:51:50;;;;;;;4.78;2.40;;;19.50;83.20;;;;;;5034911;28;20037;-66
2023/07/27 09:54:17;;;;;;;5.32;2.53;;;19.60;83.30;;;;;;5048234;28;20389;-64
2023/07/27 09:56:44;;;;;;;5.88;2.72;;;19.60;83.30;;;;;;5046282;28;20078;-63
2023/07/27 09:59:12;;;;;;;6.93;3.08;;;19.60;83.30;;;;;;5065497;28;20473;-64
2023/07/27 10:01:38;;;;;;;5.25;2.65;;;19.70;83.30;;;;;;5051441;28;20070;-64
2023/07/27 10:04:04;;;;;;;7.60;3.13;;;19.70;83.20;;;;;;5045677;28;20045;-66
2023/07/27 10:06:31;;;;;;;5.70;2.95;;;19.70;83.20;;;;;;5047372;28;20032;-65
2023/07/27 10:08:57;;;;;;;6.60;3.63;;;19.70;83.20;;;;;;5046063;28;20025;-65
2023/07/27 10:11:53;;;;;;;6.03;3.40;;;19.70;83.20;;;;;;5048663;28;20090;-66
2023/07/27 10:14:19;;;;;;;5.90;3.22;;;19.80;83.20;;;;;;5042960;28;20045;-65
2023/07/27 10:17:03;;;;;;;6.18;3.40;;;19.80;83.20;;;;;;5047943;28;20382;-66
2023/07/27 10:19:48;;;;;;;5.95;3.33;;;19.80;83.20;;;;;;5046150;28;20025;-67
2023/07/27 10:22:16;;;;;;;6.70;3.47;;;19.80;83.10;;;;;;5053044;28;20033;-65
2023/07/27 10:24:52;;;;;;;7.13;3.35;;;19.90;83.10;;;;;;5049305;28;21541;-66
2023/07/27 10:27:19;;;;;;;6.10;3.10;;;19.90;83.10;;;;;;5046581;28;20412;-64
2023/07/27 10:30:05;;;;;;;7.88;3.58;;;19.90;83.00;;;;;;5047567;28;20124;-64
2023/07/27 10:32:30;;;;;;;6.53;3.50;;;19.90;83.00;;;;;;5049495;28;20028;-65
2023/07/27 10:35:05;;;;;;;6.22;3.28;;;19.90;83.00;;;;;;5045805;28;20440;-65
2023/07/27 10:37:54;;;;;;;6.32;3.38;;;19.90;83.10;;;;;;5046431;28;20029;-65
2023/07/27 10:40:26;;;;;;;6.15;3.20;;;19.90;83.20;;;;;;5044659;28;20048;-67
2023/07/27 10:42:56;;;;;;;6.40;4.10;;;19.90;83.10;;;;;;5047301;28;20021;-66
2023/07/27 10:45:28;;;;;;;6.60;3.83;;;20.00;83.10;;;;;;5050381;28;20039;-65
2023/07/27 10:47:57;;;;;;;6.63;4.07;;;20.00;83.20;;;;;;5051324;28;20108;-65
2023/07/27 10:50:23;;;;;;;6.75;4.28;;;20.00;83.20;;;;;;5048332;28;20254;-65
2023/07/27 10:52:53;;;;;;;7.30;4.28;;;20.10;83.30;;;;;;5052542;28;20025;-65
2023/07/27 10:55:21;;;;;;;8.98;5.03;;;20.00;83.30;;;;;;5051160;28;20116;-65
2023/07/27 10:57:48;;;;;;;7.20;4.45;;;20.00;83.40;;;;;;5048314;28;20029;-65
2023/07/27 11:00:14;;;;;;;6.60;4.00;;;20.00;83.50;;;;;;5047195;28;20699;-65
2023/07/27 11:02:44;;;;;;;7.57;4.63;;;19.90;83.50;;;;;;5048595;28;20071;-66
2023/07/27 11:05:12;;;;;;;7.28;4.35;;;19.90;83.60;;;;;;5048116;28;20432;-65
2023/07/27 11:07:46;;;;;;;8.10;4.88;;;19.90;83.60;;;;;;5048809;28;20040;-65
2023/07/27 11:10:14;;;;;;;9.18;4.78;;;19.90;83.70;;;;;;5032641;28;20446;-65
2023/07/27 11:12:50;;;;;;;7.00;3.85;;;19.90;83.70;;;;;;5045698;28;21431;-66
2023/07/27 11:15:20;;;;;;;6.95;4.57;;;20.00;83.70;;;;;;5048821;28;20036;-66
2023/07/27 11:17:48;;;;;;;6.88;3.90;;;20.00;83.70;;;;;;5050539;28;20036;-66
2023/07/27 11:20:18;;;;;;;7.47;4.50;;;20.10;83.70;;;;;;5052495;28;20032;-66
2023/07/27 11:22:46;;;;;;;6.28;3.88;;;20.10;83.70;;;;;;5050443;28;20361;-65
2023/07/27 11:25:12;;;;;;;7.70;4.60;;;20.10;83.70;;;;;;5046811;28;20119;-64
2023/07/27 11:27:38;;;;;;;8.02;4.85;;;20.10;83.60;;;;;;5050396;28;20131;-64
2023/07/27 11:30:09;;;;;;;7.35;4.45;;;20.10;83.70;;;;;;5051598;28;20068;-65
2023/07/27 11:32:35;;;;;;;6.72;3.83;;;20.10;83.70;;;;;;5044915;28;20043;-66
2023/07/27 11:35:01;;;;;;;6.82;4.00;;;20.20;83.70;;;;;;5048096;28;20028;-66
2023/07/27 11:37:30;;;;;;;7.60;4.13;;;20.20;83.60;;;;;;5048616;28;20021;-65
2023/07/27 11:39:56;;;;;;;6.85;3.90;;;20.20;83.60;;;;;;5042106;28;20024;-64
2023/07/27 11:42:30;;;;;;;6.78;4.15;;;20.20;83.60;;;;;;5052869;28;20127;-64
2023/07/27 11:44:59;;;;;;;6.68;4.05;;;20.20;83.60;;;;;;5053860;28;20041;-64
2023/07/27 11:47:25;;;;;;;6.45;3.88;;;20.20;83.50;;;;;;5045760;28;20434;-65
2023/07/27 11:49:53;;;;;;;6.75;3.97;;;20.10;83.40;;;;;;5045631;28;20150;-65
2023/07/27 11:52:20;;;;;;;6.32;3.58;;;20.10;83.50;;;;;;5051229;28;20064;-65
2023/07/27 11:54:55;;;;;;;6.88;3.92;;;20.10;83.50;;;;;;5050459;28;20029;-65
2023/07/27 11:57:27;;;;;;;7.05;3.92;;;20.10;83.60;;;;;;5050301;28;20044;-65
2023/07/27 12:00:19;;;;;;;7.00;4.13;;;20.20;83.70;;;;;;5049737;28;20021;-64
2023/07/27 12:02:50;;;;;;;6.28;3.60;;;20.20;83.50;;;;;;5045381;28;20044;-64
2023/07/27 12:05:19;;;;;;;7.43;4.53;;;20.30;83.50;;;;;;5048463;28;20515;-64
2023/07/27 12:07:45;;;;;;;7.32;4.68;;;20.30;83.40;;;;;;5044931;28;20040;-64
2023/07/27 12:10:13;;;;;;;8.63;4.55;;;20.40;83.40;;;;;;5049735;28;20187;-64
2023/07/27 12:12:58;;;;;;;7.85;4.35;;;20.40;83.30;;;;;;5044293;28;20055;-64
2023/07/27 12:15:32;;;;;;;7.50;4.18;;;20.50;83.40;;;;;;5050331;28;20032;-65
2023/07/27 12:18:01;;;;;;;6.40;3.83;;;20.50;83.20;;;;;;5046196;28;20107;-65
2023/07/27 12:20:28;;;;;;;7.22;4.28;;;20.50;83.20;;;;;;5045607;28;20044;-65
2023/07/27 12:22:54;;;;;;;6.68;4.22;;;20.50;83.20;;;;;;5047823;28;20038;-64
2023/07/27 12:25:20;;;;;;;6.85;3.92;;;20.50;83.20;;;;;;5048884;28;20052;-64
2023/07/27 12:27:46;;;;;;;7.00;4.10;;;20.50;83.20;;;;;;5045289;28;20106;-64
2023/07/27 12:30:12;;;;;;;7.22;3.88;;;20.50;83.20;;;;;;5041736;28;20453;-65
2023/07/27 12:32:38;;;;;;;6.80;3.88;;;20.60;83.20;;;;;;5046175;28;20107;-64
2023/07/27 12:35:05;;;;;;;7.60;3.80;;;20.50;83.20;;;;;;5044240;28;20036;-64
2023/07/27 12:37:31;;;;;;;6.65;4.05;;;20.50;83.20;;;;;;5041854;28;20029;-64
2023/07/27 12:39:57;;;;;;;6.78;4.15;;;20.60;83.10;;;;;;5044429;28;20024;-64
2023/07/27 12:42:24;;;;;;;6.25;3.60;;;20.70;83.10;;;;;;5045749;28;20445;-64
2023/07/27 12:44:50;;;;;;;6.38;3.85;;;20.70;83.00;;;;;;5047245;28;20036;-65
2023/07/27 12:47:16;;;;;;;6.25;3.75;;;20.70;83.00;;;;;;5058786;28;20024;-65